Time;durP1;ratioP1;P1;durP2;ratioP2;P2;SDS_P1;SDS_P2;PMS_P1;PMS_P2;Temp;Humidity;BMP_temperature;BMP_pressure;BME280_temperature;BME280_humidity;BME280_pressure;Samples;Min_cycle;Max_cycle;Signal;HPM_P1;HPM_P2
2021/01/14 00:01:06;;;;;;;5.13;2.30;;;-6.10;99.90;;;;;;5055842;28;20320;-66
2021/01/14 00:03:32;;;;;;;6.00;2.53;;;-6.10;99.90;;;;;;5054087;28;20385;-68
2021/01/14 00:05:58;;;;;;;4.33;2.47;;;-6.10;99.90;;;;;;5069814;28;20292;-69
2021/01/14 00:08:23;;;;;;;4.10;2.30;;;-6.10;99.90;;;;;;5055079;28;20216;-66
2021/01/14 00:10:49;;;;;;;5.30;2.40;;;-6.10;99.90;;;;;;5051090;28;21032;-69
2021/01/14 00:13:15;;;;;;;5.73;2.70;;;-6.20;99.90;;;;;;5055604;28;20209;-66
2021/01/14 00:15:40;;;;;;;3.87;2.30;;;-6.20;99.90;;;;;;5055782;28;20197;-67
2021/01/14 00:18:06;;;;;;;6.37;2.77;;;-6.20;99.90;;;;;;5066713;28;20330;-66
2021/01/14 00:20:32;;;;;;;4.37;2.40;;;-6.20;99.90;;;;;;5055054;28;20208;-68
2021/01/14 00:22:58;;;;;;;4.87;2.63;;;-6.20;99.90;;;;;;5056652;28;20302;-66
2021/01/14 00:25:23;;;;;;;4.70;2.60;;;-6.10;99.90;;;;;;5055644;28;20208;-66
2021/01/14 00:27:51;;;;;;;5.60;2.87;;;-6.10;99.90;;;;;;5055475;28;20201;-68
2021/01/14 00:30:29;;;;;;;5.80;2.73;;;-6.10;99.90;;;;;;5054300;28;20200;-66
2021/01/14 00:32:55;;;;;;;7.50;2.60;;;-6.10;99.90;;;;;;5053049;28;20207;-69
2021/01/14 00:35:21;;;;;;;5.27;2.70;;;-6.10;99.90;;;;;;5067600;28;20948;-66
2021/01/14 00:37:53;;;;;;;4.43;2.37;;;-6.10;99.90;;;;;;5063320;28;20216;-71
2021/01/14 00:40:25;;;;;;;5.13;2.87;;;-6.10;99.90;;;;;;5050795;28;20208;-66
2021/01/14 00:43:17;;;;;;;4.80;2.70;;;-6.10;99.90;;;;;;5052519;28;20240;-67
2021/01/14 00:45:42;;;;;;;3.13;2.13;;;-6.20;99.90;;;;;;5051191;28;20738;-66
2021/01/14 00:48:09;;;;;;;3.57;2.30;;;-6.20;99.90;;;;;;5054421;28;20229;-66
2021/01/14 00:50:34;;;;;;;3.93;2.57;;;-6.20;99.90;;;;;;5048711;28;20709;-68
2021/01/14 00:53:00;;;;;;;5.97;2.77;;;-6.20;99.90;;;;;;5064655;28;20212;-68
2021/01/14 00:55:25;;;;;;;4.57;2.53;;;-6.20;99.90;;;;;;5053414;28;20201;-68
2021/01/14 00:57:51;;;;;;;6.07;2.63;;;-6.10;99.90;;;;;;5048854;28;20328;-65
2021/01/14 01:00:22;;;;;;;6.77;3.03;;;-6.10;99.90;;;;;;5051337;28;20209;-69
2021/01/14 01:02:49;;;;;;;5.37;3.00;;;-6.20;99.90;;;;;;5049392;28;20340;-69
2021/01/14 01:05:16;;;;;;;5.70;2.77;;;-6.10;99.90;;;;;;5053221;28;20216;-66
2021/01/14 01:07:59;;;;;;;4.00;2.40;;;-6.10;99.90;;;;;;5050046;28;20205;-67
2021/01/14 01:10:28;;;;;;;4.83;2.87;;;-6.10;99.90;;;;;;5056796;28;20225;-68
2021/01/14 01:12:56;;;;;;;4.20;2.40;;;-6.20;99.90;;;;;;5049884;28;20709;-68
2021/01/14 01:15:22;;;;;;;3.33;2.10;;;-6.20;99.90;;;;;;5054155;28;20671;-68
2021/01/14 01:17:48;;;;;;;4.80;2.43;;;-6.20;99.90;;;;;;5050924;28;20648;-69
2021/01/14 01:20:14;;;;;;;4.43;2.70;;;-6.20;99.90;;;;;;5053435;28;20295;-66
2021/01/14 01:22:39;;;;;;;3.70;2.20;;;-6.20;99.90;;;;;;5053599;28;20302;-70
2021/01/14 01:25:05;;;;;;;3.70;2.30;;;-6.30;99.90;;;;;;5047815;28;20284;-66
2021/01/14 01:27:31;;;;;;;2.83;2.10;;;-6.30;99.90;;;;;;5047947;28;20197;-69
2021/01/14 01:29:57;;;;;;;4.73;2.30;;;-6.30;99.90;;;;;;5052678;28;20212;-65
2021/01/14 01:32:22;;;;;;;4.07;2.43;;;-6.30;99.90;;;;;;5048791;28;20196;-68
2021/01/14 01:34:48;;;;;;;5.03;2.70;;;-6.40;99.90;;;;;;5061608;28;20201;-70
2021/01/14 01:37:14;;;;;;;4.73;2.40;;;-6.40;99.90;;;;;;5062560;28;20208;-66
2021/01/14 01:39:39;;;;;;;4.53;2.50;;;-6.40;99.90;;;;;;5048491;28;20206;-70
2021/01/14 01:42:05;;;;;;;3.30;2.43;;;-6.40;99.90;;;;;;5057102;28;20235;-68
2021/01/14 01:44:31;;;;;;;3.33;2.03;;;-6.40;99.90;;;;;;5057536;28;20226;-66
2021/01/14 01:47:05;;;;;;;6.90;2.50;;;-6.40;99.90;;;;;;5055462;28;20243;-66
2021/01/14 01:49:32;;;;;;;4.87;2.67;;;-6.40;99.90;;;;;;5058367;28;20236;-66
2021/01/14 01:51:59;;;;;;;3.20;2.20;;;-6.30;99.90;;;;;;5058996;28;20280;-68
2021/01/14 01:54:25;;;;;;;4.37;2.67;;;-6.30;99.90;;;;;;5052698;28;20208;-67
2021/01/14 01:56:52;;;;;;;4.43;2.40;;;-6.20;99.90;;;;;;5058460;28;20653;-67
2021/01/14 01:59:19;;;;;;;5.47;2.90;;;-6.20;99.90;;;;;;5054537;28;20664;-69
2021/01/14 02:01:44;;;;;;;4.00;2.00;;;-6.20;99.90;;;;;;5052574;28;20211;-70
2021/01/14 02:04:10;;;;;;;4.90;2.40;;;-6.20;99.90;;;;;;5068479;22;20240;-71
2021/01/14 02:06:50;;;;;;;4.27;2.60;;;-6.10;99.90;;;;;;5071078;28;20188;-71
2021/01/14 02:09:18;;;;;;;4.03;2.40;;;-6.10;99.90;;;;;;5076102;28;20552;-72
2021/01/14 02:11:50;;;;;;;6.07;3.00;;;-6.10;99.90;;;;;;5074913;28;20248;-72
2021/01/14 02:14:29;;;;;;;4.13;2.20;;;-6.10;99.90;;;;;;5093285;28;20200;-72
2021/01/14 02:16:55;;;;;;;3.17;1.97;;;-6.20;99.90;;;;;;5074869;28;20192;-71
2021/01/14 02:19:37;;;;;;;4.50;2.63;;;-6.20;99.90;;;;;;5075096;28;20199;-71
2021/01/14 02:22:15;;;;;;;3.63;2.47;;;-6.20;99.90;;;;;;5078533;28;20253;-71
2021/01/14 02:24:59;;;;;;;4.70;2.90;;;-6.20;99.90;;;;;;5072250;28;20307;-72
2021/01/14 02:27:25;;;;;;;6.47;3.00;;;-6.20;99.90;;;;;;5075723;28;20208;-72
2021/01/14 02:29:54;;;;;;;4.60;2.53;;;-6.20;99.90;;;;;;5078064;28;20279;-71
2021/01/14 02:32:20;;;;;;;5.20;2.70;;;-6.20;99.90;;;;;;5077658;28;20279;-72
2021/01/14 02:34:49;;;;;;;5.63;2.50;;;-6.20;99.90;;;;;;5077998;28;20194;-72
2021/01/14 02:37:15;;;;;;;3.27;2.10;;;-6.20;99.90;;;;;;5076659;28;20369;-73
2021/01/14 02:39:41;;;;;;;3.60;2.50;;;-6.30;99.90;;;;;;5075429;28;20196;-73
2021/01/14 02:42:06;;;;;;;3.93;2.40;;;-6.30;99.90;;;;;;5076603;28;20636;-71
2021/01/14 02:44:32;;;;;;;5.43;2.50;;;-6.40;99.90;;;;;;5076414;28;20203;-72
2021/01/14 02:46:59;;;;;;;3.30;2.15;;;-6.40;99.90;;;;;;5078014;28;20483;-71
2021/01/14 02:49:27;;;;;;;4.30;2.57;;;-6.50;99.90;;;;;;5079473;28;20608;-71
2021/01/14 02:51:59;;;;;;;3.80;2.30;;;-6.50;99.90;;;;;;5076458;28;20211;-72
2021/01/14 02:54:25;;;;;;;5.07;3.03;;;-6.60;99.90;;;;;;5070352;28;20192;-72
2021/01/14 02:56:51;;;;;;;3.67;2.37;;;-6.60;99.90;;;;;;5077588;28;20783;-72
2021/01/14 02:59:17;;;;;;;5.63;2.37;;;-6.70;99.90;;;;;;5076958;28;20653;-72
2021/01/14 03:01:43;;;;;;;3.33;2.37;;;-6.70;99.90;;;;;;5075625;28;20283;-72
2021/01/14 03:04:09;;;;;;;5.43;2.27;;;-6.70;99.90;;;;;;5071183;28;20279;-71
2021/01/14 03:06:36;;;;;;;3.63;2.07;;;-6.70;99.90;;;;;;5051442;28;20197;-71
2021/01/14 03:09:02;;;;;;;3.97;2.73;;;-6.70;99.90;;;;;;5055579;28;20207;-72
2021/01/14 03:11:30;;;;;;;5.70;2.17;;;-6.70;99.90;;;;;;5049333;28;20250;-72
2021/01/14 03:13:56;;;;;;;4.33;2.73;;;-6.80;99.90;;;;;;5062510;28;20636;-72
2021/01/14 03:16:22;;;;;;;4.73;2.33;;;-6.70;99.90;;;;;;5055000;28;20211;-72
2021/01/14 03:18:48;;;;;;;3.33;2.03;;;-6.70;99.90;;;;;;5052081;28;20302;-72
2021/01/14 03:21:24;;;;;;;2.93;2.10;;;-6.80;99.90;;;;;;5055121;28;20455;-72
2021/01/14 03:23:51;;;;;;;5.03;2.40;;;-6.70;99.90;;;;;;5051404;28;20213;-72
2021/01/14 03:26:18;;;;;;;4.03;2.33;;;-6.80;99.90;;;;;;5052677;28;21036;-73
2021/01/14 03:28:44;;;;;;;5.67;3.10;;;-6.80;99.90;;;;;;5052549;28;21032;-71
2021/01/14 03:31:11;;;;;;;4.00;2.43;;;-6.70;99.90;;;;;;5055036;28;20202;-71
2021/01/14 03:33:37;;;;;;;5.23;2.57;;;-6.80;99.90;;;;;;5055864;28;20203;-72
2021/01/14 03:36:05;;;;;;;4.53;2.70;;;-6.80;99.90;;;;;;5054752;28;20275;-71
2021/01/14 03:38:37;;;;;;;5.47;2.63;;;-6.70;99.90;;;;;;5053097;28;20231;-72
2021/01/14 03:41:13;;;;;;;5.57;2.50;;;-6.70;99.90;;;;;;5051755;28;20715;-71
2021/01/14 03:43:39;;;;;;;6.70;3.03;;;-6.70;99.90;;;;;;5053080;28;20274;-71
2021/01/14 03:46:13;;;;;;;6.10;2.87;;;-6.70;99.90;;;;;;5054428;28;20201;-72
2021/01/14 03:48:46;;;;;;;4.40;2.70;;;-6.70;99.90;;;;;;5050174;28;20255;-71
2021/01/14 03:51:20;;;;;;;4.50;2.97;;;-6.70;99.90;;;;;;5054851;28;20193;-73
2021/01/14 03:53:50;;;;;;;4.67;2.90;;;-6.80;99.90;;;;;;5053481;28;20224;-72
2021/01/14 03:56:17;;;;;;;4.87;2.60;;;-6.80;99.90;;;;;;5053184;28;20200;-71
2021/01/14 03:58:43;;;;;;;6.00;2.87;;;-6.80;99.90;;;;;;5049426;28;20307;-72
2021/01/14 04:01:08;;;;;;;6.20;3.10;;;-6.80;99.90;;;;;;5055608;28;20701;-72
2021/01/14 04:03:43;;;;;;;4.37;2.50;;;-6.90;99.90;;;;;;5053090;28;20279;-72
2021/01/14 04:06:10;;;;;;;7.50;3.30;;;-6.80;99.90;;;;;;5019313;28;20611;-72
2021/01/14 04:08:36;;;;;;;5.30;2.90;;;-6.80;99.90;;;;;;5021522;28;20229;-72
2021/01/14 04:11:03;;;;;;;4.57;2.80;;;-6.80;99.90;;;;;;5021735;28;20621;-72
2021/01/14 04:13:28;;;;;;;3.70;2.40;;;-6.90;99.90;;;;;;5022139;28;20671;-72
2021/01/14 04:15:54;;;;;;;6.37;3.00;;;-6.90;99.90;;;;;;5023312;28;20202;-72
2021/01/14 04:18:20;;;;;;;5.67;3.20;;;-6.80;99.90;;;;;;5023170;28;20198;-72
2021/01/14 04:20:45;;;;;;;3.70;2.47;;;-6.90;99.90;;;;;;5021891;28;20209;-72
2021/01/14 04:23:11;;;;;;;7.03;2.97;;;-6.80;99.90;;;;;;5022998;28;20311;-72
2021/01/14 04:25:37;;;;;;;6.73;3.00;;;-6.80;99.90;;;;;;5022591;28;20205;-72
2021/01/14 04:28:04;;;;;;;4.10;2.57;;;-6.90;99.90;;;;;;5022294;28;20561;-69
2021/01/14 04:30:34;;;;;;;7.33;3.20;;;-6.90;99.90;;;;;;5021559;28;20731;-68
2021/01/14 04:33:12;;;;;;;5.67;2.97;;;-6.90;99.90;;;;;;5017992;28;20221;-69
2021/01/14 04:36:06;;;;;;;7.93;3.50;;;-7.00;99.90;;;;;;5031814;28;20688;-69
2021/01/14 04:38:32;;;;;;;5.97;3.20;;;-7.00;99.90;;;;;;5020830;28;20201;-69
2021/01/14 04:41:04;;;;;;;6.77;3.17;;;-7.00;99.90;;;;;;5019554;28;20379;-69
2021/01/14 04:43:34;;;;;;;6.50;3.30;;;-7.00;99.90;;;;;;5018516;28;20203;-72
2021/01/14 04:46:08;;;;;;;3.70;2.60;;;-7.00;99.90;;;;;;5018960;28;20198;-72
2021/01/14 04:48:35;;;;;;;4.47;2.80;;;-7.00;99.90;;;;;;5019946;28;20208;-71
2021/01/14 04:51:09;;;;;;;5.93;3.17;;;-7.10;99.90;;;;;;5018189;28;20229;-72
2021/01/14 04:53:37;;;;;;;4.80;2.83;;;-7.10;99.90;;;;;;5019420;28;20202;-71
2021/01/14 04:56:06;;;;;;;13.00;3.27;;;-7.10;99.90;;;;;;5018502;28;20297;-72
2021/01/14 04:58:33;;;;;;;6.77;3.30;;;-7.00;99.90;;;;;;5018988;28;20202;-72
2021/01/14 05:01:10;;;;;;;3.93;2.60;;;-7.00;99.90;;;;;;5017217;28;20205;-71
2021/01/14 05:03:39;;;;;;;7.13;3.63;;;-7.00;99.90;;;;;;5016680;28;20736;-71
2021/01/14 05:06:06;;;;;;;6.80;3.13;;;-7.00;99.90;;;;;;5019750;28;20198;-73
2021/01/14 05:08:33;;;;;;;6.43;3.07;;;-7.00;99.90;;;;;;5019399;28;20637;-72
2021/01/14 05:11:00;;;;;;;10.00;3.40;;;-7.00;99.90;;;;;;5034520;28;20194;-72
2021/01/14 05:13:30;;;;;;;6.40;3.40;;;-7.00;99.90;;;;;;5017869;28;20206;-73
2021/01/14 05:15:56;;;;;;;6.40;3.30;;;-7.00;99.90;;;;;;5019233;28;20206;-71
2021/01/14 05:18:22;;;;;;;7.27;3.60;;;-7.00;99.90;;;;;;5026452;28;20206;-71
2021/01/14 05:20:48;;;;;;;6.57;3.10;;;-7.00;99.90;;;;;;5018832;28;20939;-73
2021/01/14 05:23:14;;;;;;;5.07;2.87;;;-6.90;99.90;;;;;;5023026;28;20230;-72
2021/01/14 05:25:52;;;;;;;6.53;3.20;;;-7.00;99.90;;;;;;5021810;28;20213;-71
2021/01/14 05:28:22;;;;;;;6.70;3.20;;;-7.00;99.90;;;;;;5021956;28;20672;-72
2021/01/14 05:30:49;;;;;;;8.80;3.60;;;-7.00;99.90;;;;;;5023584;28;20260;-72
2021/01/14 05:33:16;;;;;;;6.67;2.80;;;-7.00;99.90;;;;;;5023734;28;20209;-72
2021/01/14 05:35:50;;;;;;;5.10;3.10;;;-7.00;99.90;;;;;;5023015;28;20194;-71
2021/01/14 05:38:30;;;;;;;7.63;3.30;;;-6.90;99.90;;;;;;5024677;28;20210;-72
2021/01/14 05:41:18;;;;;;;6.00;3.13;;;-6.90;99.90;;;;;;5023597;28;20281;-71
2021/01/14 05:43:48;;;;;;;5.23;2.90;;;-6.90;99.90;;;;;;5018804;28;20315;-71
2021/01/14 05:46:22;;;;;;;6.33;3.70;;;-6.90;99.90;;;;;;5016872;28;20210;-72
2021/01/14 05:48:49;;;;;;;5.40;3.10;;;-6.90;99.90;;;;;;5021590;28;20190;-71
2021/01/14 05:51:25;;;;;;;5.87;3.60;;;-6.90;99.90;;;;;;5018967;28;20686;-72
2021/01/14 05:53:54;;;;;;;6.67;3.40;;;-7.00;99.90;;;;;;5017285;28;20294;-71
2021/01/14 05:56:31;;;;;;;8.60;3.50;;;-6.90;99.90;;;;;;5021790;28;20526;-73
2021/01/14 05:58:57;;;;;;;6.67;3.30;;;-6.90;99.90;;;;;;5020802;28;20198;-72
2021/01/14 06:01:26;;;;;;;3.40;2.40;;;-6.90;99.90;;;;;;5018460;28;20244;-72
2021/01/14 06:03:52;;;;;;;5.40;2.73;;;-6.90;99.90;;;;;;5019245;28;20713;-71
2021/01/14 06:06:19;;;;;;;8.70;3.93;;;-6.90;99.90;;;;;;5051125;28;20243;-73
2021/01/14 06:08:45;;;;;;;9.80;3.23;;;-7.00;99.90;;;;;;5058189;28;20200;-73
2021/01/14 06:11:22;;;;;;;7.27;3.33;;;-7.00;99.90;;;;;;5050068;28;20243;-72
2021/01/14 06:13:49;;;;;;;6.87;3.13;;;-6.90;99.90;;;;;;5058922;28;20200;-72
2021/01/14 06:16:15;;;;;;;5.33;3.07;;;-7.00;99.90;;;;;;5063955;28;20193;-73
2021/01/14 06:18:41;;;;;;;5.97;3.23;;;-7.00;99.90;;;;;;5064667;28;20722;-73
2021/01/14 06:21:07;;;;;;;7.63;3.57;;;-6.90;99.90;;;;;;5064855;28;20242;-72
2021/01/14 06:23:46;;;;;;;9.93;3.90;;;-7.00;99.90;;;;;;5061863;28;20933;-72
2021/01/14 06:26:25;;;;;;;8.47;3.63;;;-7.00;99.90;;;;;;5057050;28;20193;-73
2021/01/14 06:28:51;;;;;;;6.50;3.57;;;-7.00;99.90;;;;;;5057413;28;20191;-72
2021/01/14 06:31:23;;;;;;;6.23;3.50;;;-7.00;99.90;;;;;;5049792;28;20330;-73
2021/01/14 06:33:53;;;;;;;9.30;4.23;;;-6.90;99.90;;;;;;5054321;28;20202;-72
2021/01/14 06:36:20;;;;;;;6.73;3.30;;;-7.00;99.90;;;;;;5060327;28;20569;-72
2021/01/14 06:38:48;;;;;;;15.27;7.10;;;-6.90;99.90;;;;;;5067606;28;20196;-72
2021/01/14 06:41:17;;;;;;;21.90;10.40;;;-6.90;99.90;;;;;;5061653;28;20848;-72
2021/01/14 06:43:44;;;;;;;12.03;7.10;;;-6.90;99.90;;;;;;5055170;28;20251;-73
2021/01/14 06:46:19;;;;;;;11.90;5.80;;;-6.90;99.90;;;;;;5059077;28;20193;-72
2021/01/14 06:49:03;;;;;;;16.83;7.63;;;-6.90;99.90;;;;;;5053221;28;20192;-72
2021/01/14 06:51:54;;;;;;;15.13;6.23;;;-7.00;99.90;;;;;;5051905;28;20197;-72
2021/01/14 06:54:21;;;;;;;18.30;7.00;;;-6.90;99.90;;;;;;5056591;28;20284;-72
2021/01/14 06:57:12;;;;;;;24.83;9.67;;;-6.90;99.90;;;;;;5058773;28;20198;-74
2021/01/14 06:59:38;;;;;;;10.87;4.97;;;-6.90;99.90;;;;;;5052468;28;20204;-72
2021/01/14 07:02:07;;;;;;;10.47;4.60;;;-6.90;99.90;;;;;;5063201;28;20272;-73
2021/01/14 07:04:51;;;;;;;9.53;5.00;;;-7.00;99.90;;;;;;5055578;28;20217;-72
2021/01/14 07:07:23;;;;;;;6.67;3.93;;;-7.00;99.90;;;;;;5059171;28;20203;-72
2021/01/14 07:10:03;;;;;;;13.70;5.33;;;-6.90;99.90;;;;;;5051511;28;20197;-73
2021/01/14 07:12:35;;;;;;;11.23;5.00;;;-6.90;99.90;;;;;;5050878;28;20296;-73
2021/01/14 07:15:06;;;;;;;6.43;3.60;;;-7.00;99.90;;;;;;5057204;28;20227;-72
2021/01/14 07:17:34;;;;;;;17.70;8.90;;;-6.90;99.90;;;;;;5047271;28;20758;-72
2021/01/14 07:20:01;;;;;;;9.97;5.03;;;-6.90;99.90;;;;;;5056546;28;20197;-72
2021/01/14 07:22:30;;;;;;;11.83;5.10;;;-6.90;99.90;;;;;;5046471;28;20894;-71
2021/01/14 07:25:00;;;;;;;9.07;5.00;;;-6.90;99.90;;;;;;5047656;28;20190;-72
2021/01/14 07:27:27;;;;;;;13.37;7.10;;;-6.90;99.90;;;;;;5060740;28;20560;-71
2021/01/14 07:29:56;;;;;;;29.37;12.13;;;-6.90;99.90;;;;;;5060912;28;20227;-71
2021/01/14 07:32:55;;;;;;;51.23;20.47;;;-6.90;99.90;;;;;;5054133;28;20205;-72
2021/01/14 07:35:35;;;;;;;17.03;8.73;;;-6.90;99.90;;;;;;5050214;28;20575;-72
2021/01/14 07:38:02;;;;;;;17.23;8.03;;;-6.90;99.90;;;;;;5053887;28;20667;-72
2021/01/14 07:40:28;;;;;;;40.97;17.93;;;-6.90;99.90;;;;;;5053777;28;20196;-73
2021/01/14 07:42:55;;;;;;;15.17;6.37;;;-6.90;99.90;;;;;;5048193;28;20839;-72
2021/01/14 07:45:21;;;;;;;27.03;12.67;;;-6.90;99.90;;;;;;5060294;28;20189;-72
2021/01/14 07:47:46;;;;;;;21.83;9.80;;;-6.90;99.90;;;;;;5054181;28;20282;-71
2021/01/14 07:50:29;;;;;;;24.67;11.17;;;-6.90;99.90;;;;;;5053597;28;20201;-71
2021/01/14 07:52:56;;;;;;;18.60;8.17;;;-6.90;99.90;;;;;;5058970;28;20205;-71
2021/01/14 07:55:25;;;;;;;16.00;6.80;;;-6.90;99.90;;;;;;5055380;28;20787;-71
2021/01/14 07:58:21;;;;;;;8.93;4.30;;;-6.90;99.90;;;;;;5045627;28;20296;-71
2021/01/14 08:01:09;;;;;;;12.93;5.20;;;-6.90;99.90;;;;;;5059235;28;20201;-73
2021/01/14 08:03:42;;;;;;;10.57;5.07;;;-6.90;99.90;;;;;;5059561;28;20212;-72
2021/01/14 08:06:27;;;;;;;5.90;3.20;;;-6.90;99.90;;;;;;5059057;28;20288;-72
2021/01/14 08:09:13;;;;;;;6.57;3.47;;;-6.80;99.90;;;;;;5043379;28;20205;-72
2021/01/14 08:11:45;;;;;;;6.97;3.40;;;-6.80;99.90;;;;;;5053599;28;20291;-71
2021/01/14 08:14:36;;;;;;;7.40;3.78;;;-6.90;99.90;;;;;;5055282;28;20224;-72
2021/01/14 08:17:19;;;;;;;10.63;4.57;;;-6.90;99.90;;;;;;5055120;28;20207;-72
2021/01/14 08:19:44;;;;;;;28.17;7.43;;;-6.90;99.90;;;;;;5049829;28;20851;-71
2021/01/14 08:22:13;;;;;;;20.93;7.00;;;-6.90;99.90;;;;;;5054461;28;20224;-72
2021/01/14 08:24:53;;;;;;;14.83;5.17;;;-6.90;99.90;;;;;;5061233;28;20667;-73
2021/01/14 08:27:27;;;;;;;40.67;12.23;;;-6.90;99.90;;;;;;5043888;28;20201;-73
2021/01/14 08:29:59;;;;;;;9.83;4.40;;;-6.90;99.90;;;;;;5050484;28;20208;-72
2021/01/14 08:32:28;;;;;;;17.20;6.37;;;-6.90;99.90;;;;;;5053215;28;20205;-71
2021/01/14 08:34:55;;;;;;;15.53;5.97;;;-6.90;99.90;;;;;;5051806;28;20205;-70
2021/01/14 08:37:59;;;;;;;7.87;4.00;;;-6.80;99.90;;;;;;5056822;28;20652;-72
2021/01/14 08:40:26;;;;;;;8.80;3.93;;;-6.80;99.90;;;;;;5044882;28;20903;-72
2021/01/14 08:43:07;;;;;;;8.03;3.53;;;-6.80;99.90;;;;;;5050706;28;20274;-72
2021/01/14 08:45:43;;;;;;;7.00;3.33;;;-6.80;99.90;;;;;;5056123;28;20253;-72
2021/01/14 08:48:09;;;;;;;7.83;3.73;;;-6.80;99.90;;;;;;5047641;28;20832;-73
2021/01/14 08:50:35;;;;;;;5.00;3.07;;;-6.80;99.90;;;;;;5055508;28;20736;-72
2021/01/14 08:53:06;;;;;;;7.40;3.77;;;-6.70;99.90;;;;;;5056535;28;20587;-72
2021/01/14 08:55:33;;;;;;;9.93;4.83;;;-6.80;99.90;;;;;;5053429;28;20212;-71
2021/01/14 08:58:00;;;;;;;8.43;4.50;;;-6.70;99.90;;;;;;5053444;28;20205;-72
2021/01/14 09:00:26;;;;;;;10.43;6.20;;;-6.70;99.90;;;;;;5053211;28;20226;-72
2021/01/14 09:02:52;;;;;;;6.57;3.80;;;-6.70;99.90;;;;;;5057026;28;20589;-73
2021/01/14 09:05:19;;;;;;;11.93;6.17;;;-6.70;99.90;;;;;;5053750;28;20229;-72
2021/01/14 09:08:12;;;;;;;14.00;4.97;;;-6.70;99.90;;;;;;5056266;28;20197;-73
2021/01/14 09:10:54;;;;;;;7.10;3.67;;;-6.70;99.90;;;;;;5054516;28;20354;-73
2021/01/14 09:13:23;;;;;;;6.73;2.83;;;-6.60;99.90;;;;;;5055169;28;20208;-72
2021/01/14 09:15:50;;;;;;;5.20;2.87;;;-6.60;99.90;;;;;;5057207;28;20280;-73
2021/01/14 09:18:17;;;;;;;14.48;7.45;;;-6.60;99.90;;;;;;5049752;28;20213;-72
2021/01/14 09:20:53;;;;;;;5.60;3.38;;;-6.60;99.90;;;;;;5045516;28;20211;-72
2021/01/14 09:23:19;;;;;;;5.87;3.27;;;-6.60;99.90;;;;;;5057277;28;20220;-72
2021/01/14 09:25:50;;;;;;;7.27;3.50;;;-6.60;99.90;;;;;;5052201;28;20197;-72
2021/01/14 09:28:19;;;;;;;4.23;2.37;;;-6.60;99.90;;;;;;5047213;28;20570;-71
2021/01/14 09:30:44;;;;;;;4.57;2.93;;;-6.60;99.90;;;;;;5054312;28;21011;-72
2021/01/14 09:33:10;;;;;;;6.57;3.00;;;-6.50;99.90;;;;;;5054823;28;20255;-72
2021/01/14 09:35:37;;;;;;;5.47;2.70;;;-6.50;99.90;;;;;;5052147;28;20219;-72
2021/01/14 09:38:03;;;;;;;10.00;4.77;;;-6.50;99.90;;;;;;5050641;28;20563;-73
2021/01/14 09:40:29;;;;;;;12.33;5.83;;;-6.40;99.90;;;;;;5052653;28;20209;-73
2021/01/14 09:42:59;;;;;;;10.93;5.43;;;-6.40;99.90;;;;;;5047939;28;20278;-72
2021/01/14 09:45:25;;;;;;;5.43;3.10;;;-6.30;99.90;;;;;;5047653;28;21039;-73
2021/01/14 09:47:52;;;;;;;5.47;3.20;;;-6.40;99.90;;;;;;5050967;28;20712;-73
2021/01/14 09:50:18;;;;;;;6.37;3.60;;;-6.30;99.90;;;;;;5050339;28;20209;-73
2021/01/14 09:52:45;;;;;;;11.40;4.67;;;-6.30;99.90;;;;;;5054275;28;20231;-73
2021/01/14 09:55:14;;;;;;;13.13;6.17;;;-6.30;99.90;;;;;;5056006;28;20205;-73
2021/01/14 09:57:45;;;;;;;6.67;3.23;;;-6.30;99.90;;;;;;5047829;28;20366;-73
2021/01/14 10:00:17;;;;;;;6.80;3.33;;;-6.30;99.90;;;;;;5057168;28;20223;-72
2021/01/14 10:02:45;;;;;;;5.93;3.47;;;-6.30;99.90;;;;;;5055319;28;20209;-71
2021/01/14 10:05:13;;;;;;;2.47;1.73;;;-6.30;99.90;;;;;;5060140;28;20228;-72
2021/01/14 10:07:45;;;;;;;7.27;4.10;;;-6.30;99.90;;;;;;5063474;28;20694;-72
2021/01/14 10:10:11;;;;;;;5.43;3.10;;;-6.30;99.90;;;;;;5057267;28;20197;-72
2021/01/14 10:12:37;;;;;;;9.07;3.27;;;-6.30;99.90;;;;;;5055779;28;20230;-72
2021/01/14 10:15:14;;;;;;;4.43;3.03;;;-6.20;99.90;;;;;;5053019;28;20585;-73
2021/01/14 10:17:41;;;;;;;6.83;3.20;;;-6.10;99.90;;;;;;5051240;28;20206;-72
2021/01/14 10:20:09;;;;;;;8.10;4.73;;;-6.10;99.90;;;;;;5057198;28;20203;-71
2021/01/14 10:22:46;;;;;;;7.17;3.60;;;-6.10;99.90;;;;;;5055787;28;20839;-71
2021/01/14 10:25:12;;;;;;;15.00;7.25;;;-6.10;99.90;;;;;;5062759;28;20215;-71
2021/01/14 10:27:38;;;;;;;7.90;4.22;;;-6.10;99.90;;;;;;5064481;28;20212;-72
2021/01/14 10:30:23;;;;;;;16.05;8.57;;;-6.00;99.90;;;;;;5058651;28;20197;-70
2021/01/14 10:32:49;;;;;;;6.77;3.13;;;-6.00;99.90;;;;;;5058909;28;20209;-70
2021/01/14 10:35:29;;;;;;;9.10;3.50;;;-6.00;99.90;;;;;;5055164;28;20241;-69
2021/01/14 10:38:02;;;;;;;8.80;2.95;;;-6.10;99.90;;;;;;5056770;28;20206;-69
2021/01/14 10:40:40;;;;;;;7.13;3.47;;;-6.10;99.90;;;;;;5050694;28;20193;-69
2021/01/14 10:43:08;;;;;;;10.60;3.42;;;-6.10;99.90;;;;;;5053813;28;20201;-69
2021/01/14 10:45:36;;;;;;;3.40;2.43;;;-6.10;99.90;;;;;;5050970;28;20649;-69
2021/01/14 10:48:16;;;;;;;6.03;3.30;;;-6.00;99.90;;;;;;5057228;28;20201;-69
2021/01/14 10:50:51;;;;;;;8.17;3.30;;;-6.10;99.90;;;;;;5045054;28;20198;-69
2021/01/14 10:53:31;;;;;;;8.07;4.53;;;-6.10;99.90;;;;;;5049014;28;20203;-70
2021/01/14 10:56:04;;;;;;;11.47;4.10;;;-6.00;99.90;;;;;;5056556;28;20196;-70
2021/01/14 10:58:30;;;;;;;6.00;3.30;;;-6.10;99.90;;;;;;5054606;28;20205;-69
2021/01/14 11:00:56;;;;;;;6.27;2.83;;;-6.10;99.90;;;;;;5046429;28;20711;-68
2021/01/14 11:03:24;;;;;;;6.07;3.37;;;-6.10;99.90;;;;;;5061736;28;20223;-69
2021/01/14 11:05:52;;;;;;;5.32;2.72;;;-6.10;99.90;;;;;;5053455;28;20224;-69
2021/01/14 11:08:17;;;;;;;5.70;3.27;;;-6.00;99.90;;;;;;5058555;28;20678;-72
2021/01/14 11:10:45;;;;;;;9.18;3.78;;;-6.00;99.90;;;;;;5060565;28;20201;-71
2021/01/14 11:13:16;;;;;;;10.18;4.53;;;-5.90;99.90;;;;;;5054535;28;20221;-72
2021/01/14 11:15:43;;;;;;;10.70;4.43;;;-5.90;99.90;;;;;;5052501;28;20217;-71
2021/01/14 11:18:10;;;;;;;8.35;4.88;;;-5.90;99.90;;;;;;5060191;28;20255;-72
2021/01/14 11:20:36;;;;;;;11.65;5.03;;;-5.80;99.90;;;;;;5059132;28;20197;-68
2021/01/14 11:23:02;;;;;;;9.82;4.30;;;-5.70;99.90;;;;;;5057877;28;20603;-68
2021/01/14 11:25:30;;;;;;;5.57;3.27;;;-5.70;99.90;;;;;;5054367;28;21112;-68
2021/01/14 11:27:56;;;;;;;6.90;3.47;;;-5.70;99.90;;;;;;5055194;28;20547;-70
2021/01/14 11:30:22;;;;;;;8.10;4.47;;;-5.70;99.90;;;;;;5057370;28;20300;-68
2021/01/14 11:32:48;;;;;;;6.40;3.20;;;-5.80;99.90;;;;;;5048211;28;20794;-70
2021/01/14 11:35:15;;;;;;;6.97;3.80;;;-5.80;99.90;;;;;;5054348;28;20200;-69
2021/01/14 11:37:41;;;;;;;7.47;4.60;;;-5.70;99.90;;;;;;5058264;28;20667;-69
2021/01/14 11:40:07;;;;;;;4.40;3.07;;;-5.70;99.90;;;;;;5046678;28;20611;-70
2021/01/14 11:42:33;;;;;;;5.90;2.73;;;-5.60;99.90;;;;;;5049218;28;20759;-69
2021/01/14 11:44:59;;;;;;;5.57;3.23;;;-5.60;99.90;;;;;;5057737;28;20287;-68
2021/01/14 11:47:24;;;;;;;6.38;3.20;;;-5.60;99.90;;;;;;5058889;28;21170;-68
2021/01/14 11:49:50;;;;;;;4.65;2.65;;;-5.60;99.90;;;;;;5052249;28;20194;-69
2021/01/14 11:52:16;;;;;;;4.63;2.33;;;-5.50;99.90;;;;;;5048631;28;20215;-70
2021/01/14 11:54:46;;;;;;;4.05;2.65;;;-5.50;99.90;;;;;;5053461;28;20209;-68
2021/01/14 11:57:12;;;;;;;4.22;2.50;;;-5.50;99.90;;;;;;5061668;28;20203;-71
2021/01/14 11:59:37;;;;;;;4.85;2.88;;;-5.40;99.90;;;;;;5053822;28;20204;-72
2021/01/14 12:02:03;;;;;;;6.20;3.13;;;-5.40;99.90;;;;;;5054796;28;20281;-70
2021/01/14 12:04:29;;;;;;;5.63;2.80;;;-5.50;99.90;;;;;;5060658;28;20272;-69
2021/01/14 12:06:55;;;;;;;8.02;3.30;;;-5.40;99.90;;;;;;5055883;28;20204;-68
2021/01/14 12:09:21;;;;;;;5.40;2.92;;;-5.40;99.90;;;;;;5049181;28;20205;-68
2021/01/14 12:11:46;;;;;;;7.25;2.85;;;-5.40;99.90;;;;;;5052694;28;20225;-69
2021/01/14 12:14:12;;;;;;;6.65;3.00;;;-5.40;99.90;;;;;;5058239;28;20633;-69
2021/01/14 12:16:38;;;;;;;5.60;3.00;;;-5.40;99.90;;;;;;5050106;28;20211;-69
2021/01/14 12:19:04;;;;;;;5.07;2.80;;;-5.40;99.90;;;;;;5048678;28;20202;-70
2021/01/14 12:21:29;;;;;;;6.50;2.80;;;-5.30;99.90;;;;;;5057327;28;20241;-69
2021/01/14 12:23:55;;;;;;;5.30;2.87;;;-5.40;99.90;;;;;;5057088;28;20213;-69
2021/01/14 12:26:21;;;;;;;5.73;2.90;;;-5.50;99.90;;;;;;5055616;28;20243;-70
2021/01/14 12:28:47;;;;;;;8.13;3.03;;;-5.50;99.90;;;;;;5054659;28;20340;-69
2021/01/14 12:31:13;;;;;;;6.73;3.30;;;-5.60;99.90;;;;;;5059439;28;20196;-68
2021/01/14 12:33:39;;;;;;;6.28;2.97;;;-5.70;99.90;;;;;;5052672;28;20576;-69
2021/01/14 12:36:05;;;;;;;4.70;3.00;;;-5.70;99.90;;;;;;5055049;28;20308;-68
2021/01/14 12:38:31;;;;;;;6.23;2.50;;;-5.80;99.90;;;;;;5051161;28;20212;-69
2021/01/14 12:40:56;;;;;;;5.33;2.83;;;-5.80;99.90;;;;;;5052846;28;20206;-69
2021/01/14 12:43:22;;;;;;;5.10;2.80;;;-5.80;99.90;;;;;;5050921;28;20254;-69
2021/01/14 12:45:52;;;;;;;5.43;2.70;;;-5.80;99.90;;;;;;5054962;28;20220;-69
2021/01/14 12:48:21;;;;;;;4.77;2.73;;;-6.00;99.90;;;;;;5045200;28;20200;-69
2021/01/14 12:50:47;;;;;;;5.97;2.70;;;-6.00;99.90;;;;;;5041976;28;20201;-70
2021/01/14 12:53:12;;;;;;;5.87;2.97;;;-6.10;99.90;;;;;;5051100;28;20238;-68
2021/01/14 12:55:38;;;;;;;4.10;2.60;;;-6.20;99.90;;;;;;5050177;28;20676;-69
2021/01/14 12:58:04;;;;;;;6.20;3.07;;;-6.20;99.90;;;;;;5061420;28;20892;-72